createdAt,value
2022-12-01T00:15:35.157Z,901
2022-12-01T00:35:35.160Z,897
2022-12-01T00:55:35.242Z,898
2022-12-01T01:15:35.379Z,896
2022-12-01T01:35:35.354Z,895
2022-12-01T01:55:35.409Z,900
2022-12-01T02:15:35.484Z,906
2022-12-01T02:35:35.550Z,910
2022-12-01T02:55:35.595Z,913
2022-12-01T03:15:35.853Z,916
2022-12-01T03:35:35.728Z,919
2022-12-01T03:55:35.799Z,919
2022-12-01T04:35:35.892Z,920
2022-12-01T04:55:35.941Z,919
2022-12-01T05:15:36.011Z,919
2022-12-01T05:55:36.148Z,916
2022-12-01T06:15:36.204Z,912
2022-12-01T06:55:36.359Z,901
2022-12-01T07:15:36.380Z,896
2022-12-01T07:35:36.417Z,894
2022-12-01T07:55:36.528Z,893
2022-12-01T08:15:44.620Z,896
2022-12-01T08:35:36.612Z,901
2022-12-01T08:55:36.689Z,906
2022-12-01T09:15:36.756Z,909
2022-12-01T09:35:36.793Z,912
2022-12-01T09:55:36.850Z,913
2022-12-01T10:15:36.936Z,915
2022-12-01T10:35:36.971Z,916
2022-12-01T10:55:37.058Z,917
2022-12-01T11:15:37.123Z,917
2022-12-01T11:35:37.139Z,918
2022-12-01T11:55:37.212Z,919
2022-12-01T12:15:37.309Z,916
2022-12-01T12:35:37.347Z,917
2022-12-01T12:55:37.449Z,921
2022-12-01T13:15:37.492Z,921
2022-12-01T13:35:37.533Z,914
2022-12-01T14:35:37.686Z,892
2022-12-01T14:55:37.739Z,894
2022-12-01T15:15:45.803Z,895
2022-12-01T15:35:40.267Z,900
2022-12-01T15:55:37.947Z,908
2022-12-01T16:15:46.015Z,914
2022-12-01T16:35:38.051Z,917
2022-12-01T16:55:38.118Z,916
2022-12-01T17:15:38.194Z,917
2022-12-01T18:15:38.408Z,916
2022-12-01T18:35:38.443Z,917
2022-12-01T18:55:38.499Z,919
2022-12-01T19:15:38.567Z,916
2022-12-01T19:35:38.607Z,909
2022-12-01T19:55:38.682Z,903
2022-12-01T20:35:38.806Z,891
2022-12-01T20:55:38.874Z,889
2022-12-01T21:15:38.932Z,887
2022-12-01T21:35:38.980Z,889
2022-12-01T21:55:39.053Z,889
2022-12-01T22:15:39.195Z,895
2022-12-01T22:35:39.194Z,899
2022-12-01T22:55:39.252Z,903
2022-12-01T23:15:39.382Z,905
